Time;durP1;ratioP1;P1;durP2;ratioP2;P2;SDS_P1;SDS_P2;PMS_P1;PMS_P2;Temp;Humidity;BMP_temperature;BMP_pressure;BME280_temperature;BME280_humidity;BME280_pressure;Samples;Min_cycle;Max_cycle;Signal;HPM_P1;HPM_P2
2022/06/12 00:01:44;;;;;;;5.40;4.15;;;;;;;;;;5076169;28;20201;-81
2022/06/12 00:04:10;;;;;;;5.80;3.92;;;;;;;;;;5076281;28;20027;-81
2022/06/12 00:06:35;;;;;;;6.20;4.05;;;;;;;;;;5070509;28;20017;-82
2022/06/12 00:09:00;;;;;;;6.43;3.92;;;;;;;;;;5077323;28;20031;-81
2022/06/12 00:11:27;;;;;;;8.43;4.32;;;;;;;;;;5079776;28;20039;-80
2022/06/12 00:13:57;;;;;;;9.55;4.40;;;;;;;;;;5072555;28;20032;-81
2022/06/12 00:16:24;;;;;;;8.95;4.65;;;;;;;;;;5072837;28;20024;-80
2022/06/12 00:18:50;;;;;;;6.78;4.70;;;;;;;;;;5080536;28;20450;-81
2022/06/12 00:21:16;;;;;;;7.53;4.65;;;;;;;;;;5081288;28;20029;-81
2022/06/12 00:23:43;;;;;;;9.38;4.50;;;;;;;;;;5079990;28;20017;-82
2022/06/12 00:26:09;;;;;;;5.85;4.15;;;;;;;;;;5081876;28;20043;-82
2022/06/12 00:28:35;;;;;;;6.68;4.32;;;;;;;;;;5080609;28;20028;-82
2022/06/12 00:31:01;;;;;;;9.52;4.85;;;;;;;;;;5081465;28;20085;-81
2022/06/12 00:33:27;;;;;;;9.23;4.97;;;;;;;;;;5079928;28;20365;-81
2022/06/12 00:35:52;;;;;;;8.15;4.47;;;;;;;;;;5080195;28;20019;-82
2022/06/12 00:38:17;;;;;;;6.68;4.65;;;;;;;;;;5083317;28;20020;-80
2022/06/12 00:40:43;;;;;;;5.55;3.80;;;;;;;;;;5054358;28;20020;-81
2022/06/12 00:43:13;;;;;;;7.93;4.20;;;;;;;;;;5081834;28;20016;-82
2022/06/12 00:45:42;;;;;;;7.55;3.63;;;;;;;;;;5079726;28;20086;-82
2022/06/12 00:48:17;;;;;;;7.80;4.05;;;;;;;;;;5079590;28;20036;-80
2022/06/12 00:50:58;;;;;;;7.47;4.25;;;;;;;;;;5073021;28;20029;-79
2022/06/12 00:53:29;;;;;;;9.18;4.18;;;;;;;;;;5078121;28;20029;-82
2022/06/12 00:56:07;;;;;;;8.52;3.88;;;;;;;;;;5081259;28;20040;-81
2022/06/12 00:58:39;;;;;;;7.90;4.13;;;;;;;;;;5081571;28;20021;-80
2022/06/12 01:01:10;;;;;;;8.52;4.07;;;;;;;;;;5080161;28;20028;-82
2022/06/12 01:06:33;;;;;;;6.88;3.75;;;;;;;;;;5081091;28;20031;-82
2022/06/12 01:06:34;;;;;;;5.85;4.00;;;;;;;;;;5080666;28;20024;-81
2022/06/12 01:09:05;;;;;;;7.60;4.63;;;;;;;;;;5081453;28;20021;-81
2022/06/12 01:11:31;;;;;;;5.75;3.78;;;;;;;;;;5091514;28;20000;-78
2022/06/12 01:13:57;;;;;;;6.95;3.97;;;;;;;;;;5084391;28;20432;-82
2022/06/12 01:16:25;;;;;;;8.57;4.13;;;;;;;;;;5080425;28;20039;-82
2022/06/12 01:18:54;;;;;;;6.10;3.95;;;;;;;;;;5078846;28;20050;-81
2022/06/12 01:21:31;;;;;;;5.28;4.10;;;;;;;;;;5079724;28;20024;-81
2022/06/12 01:24:14;;;;;;;6.20;3.90;;;;;;;;;;5080567;28;20364;-82
2022/06/12 01:26:52;;;;;;;5.57;4.38;;;;;;;;;;5076683;28;20074;-81
2022/06/12 01:29:24;;;;;;;5.40;3.45;;;;;;;;;;5069650;28;20028;-78
2022/06/12 01:32:08;;;;;;;6.38;4.30;;;;;;;;;;5074534;28;20025;-81
2022/06/12 01:34:57;;;;;;;8.40;3.95;;;;;;;;;;5079607;28;20059;-81
2022/06/12 01:37:36;;;;;;;6.95;3.88;;;;;;;;;;5026721;28;20106;-80
2022/06/12 01:40:25;;;;;;;6.53;3.50;;;;;;;;;;5079771;28;20027;-81
2022/06/12 01:43:08;;;;;;;4.88;3.63;;;;;;;;;;5078840;28;20027;-78
2022/06/12 01:46:05;;;;;;;4.47;3.60;;;;;;;;;;5074263;28;20021;-81
2022/06/12 01:49:13;;;;;;;5.78;3.80;;;;;;;;;;5060108;28;20149;-81
2022/06/12 01:52:06;;;;;;;7.75;3.63;;;;;;;;;;5077612;28;20028;-80
2022/06/12 01:54:36;;;;;;;4.63;3.45;;;;;;;;;;5078790;28;20021;-79
2022/06/12 01:57:09;;;;;;;6.40;3.60;;;;;;;;;;5079411;28;20024;-79
2022/06/12 02:00:01;;;;;;;5.13;3.30;;;;;;;;;;5075600;28;20017;-80
2022/06/12 02:02:59;;;;;;;8.70;4.38;;;;;;;;;;5065259;28;20040;-80
2022/06/12 02:05:33;;;;;;;6.97;3.95;;;;;;;;;;5043361;28;20033;-81
2022/06/12 02:08:13;;;;;;;6.43;3.55;;;;;;;;;;5078040;28;20103;-79
2022/06/12 02:13:11;;;;;;;7.00;3.58;;;;;;;;;;5078337;28;20032;-81
2022/06/12 02:13:48;;;;;;;5.82;3.60;;;;;;;;;;5077364;28;20359;-81
2022/06/12 02:16:19;;;;;;;7.18;3.42;;;;;;;;;;5076999;28;20028;-80
2022/06/12 02:18:51;;;;;;;4.65;3.58;;;;;;;;;;5070522;28;20032;-79
2022/06/12 02:21:25;;;;;;;5.65;3.90;;;;;;;;;;5077411;28;20545;-79
2022/06/12 02:23:57;;;;;;;6.85;3.35;;;;;;;;;;5071484;28;20119;-80
2022/06/12 02:26:36;;;;;;;9.85;3.75;;;;;;;;;;5078750;28;20025;-81
2022/06/12 02:29:09;;;;;;;6.18;3.85;;;;;;;;;;5060234;28;20078;-81
2022/06/12 02:31:40;;;;;;;6.70;3.95;;;;;;;;;;5078357;28;20501;-81
2022/06/12 02:34:15;;;;;;;11.38;4.00;;;;;;;;;;5078148;28;20024;-80
2022/06/12 02:36:49;;;;;;;5.43;3.85;;;;;;;;;;5074165;22;20102;-81
2022/06/12 02:39:22;;;;;;;7.32;3.80;;;;;;;;;;5040703;28;20029;-80
2022/06/12 02:41:57;;;;;;;6.53;4.03;;;;;;;;;;5036531;28;20383;-79
2022/06/12 02:44:45;;;;;;;5.70;4.10;;;;;;;;;;5038262;28;20100;-79
2022/06/12 02:47:18;;;;;;;5.72;3.88;;;;;;;;;;5037629;28;20372;-80
2022/06/12 02:49:46;;;;;;;9.27;4.22;;;;;;;;;;5037468;28;20021;-78
2022/06/12 02:52:19;;;;;;;8.32;4.43;;;;;;;;;;5043805;28;20017;-79
2022/06/12 02:55:07;;;;;;;4.78;3.80;;;;;;;;;;5041273;28;20033;-79
2022/06/12 02:57:40;;;;;;;7.47;3.90;;;;;;;;;;5046105;28;20044;-79
2022/06/12 03:00:24;;;;;;;4.28;3.88;;;;;;;;;;5045177;28;20029;-80
2022/06/12 03:03:04;;;;;;;6.38;4.13;;;;;;;;;;5036911;28;20419;-80
2022/06/12 03:05:33;;;;;;;7.15;3.83;;;;;;;;;;5029755;28;20037;-80
2022/06/12 03:08:06;;;;;;;7.78;3.95;;;;;;;;;;5051187;28;20041;-80
2022/06/12 03:10:39;;;;;;;8.55;4.80;;;;;;;;;;5052881;28;20035;-79
2022/06/12 03:13:08;;;;;;;6.43;4.28;;;;;;;;;;5024987;28;20043;-79
2022/06/12 03:15:36;;;;;;;6.40;4.13;;;;;;;;;;5036872;28;20025;-79
2022/06/12 03:18:03;;;;;;;6.90;4.75;;;;;;;;;;5046910;28;20032;-79
2022/06/12 03:20:38;;;;;;;6.65;4.10;;;;;;;;;;5038565;28;20040;-79
2022/06/12 03:23:17;;;;;;;7.47;4.68;;;;;;;;;;5043123;28;20383;-79
2022/06/12 03:25:51;;;;;;;7.60;4.68;;;;;;;;;;5045067;28;20127;-81
2022/06/12 03:28:44;;;;;;;9.20;5.00;;;;;;;;;;5038508;28;20111;-79
2022/06/12 03:31:20;;;;;;;7.95;4.80;;;;;;;;;;5038248;28;20497;-80
2022/06/12 03:33:55;;;;;;;5.50;4.03;;;;;;;;;;5041784;28;20032;-80
2022/06/12 03:36:30;;;;;;;9.98;4.30;;;;;;;;;;5055909;28;20025;-79
2022/06/12 03:39:14;;;;;;;11.18;4.32;;;;;;;;;;5052853;28;20494;-79
2022/06/12 03:42:05;;;;;;;6.72;4.13;;;;;;;;;;5061551;28;20025;-80
2022/06/12 03:44:52;;;;;;;5.38;4.00;;;;;;;;;;5066822;28;20056;-80
2022/06/12 03:47:48;;;;;;;8.07;4.18;;;;;;;;;;5067950;28;20028;-79
2022/06/12 03:50:36;;;;;;;6.95;4.57;;;;;;;;;;5068786;28;20029;-79
2022/06/12 03:53:14;;;;;;;9.15;4.25;;;;;;;;;;5047404;28;20047;-79
2022/06/12 03:58:55;;;;;;;8.88;4.32;;;;;;;;;;5078607;28;20044;-79
2022/06/12 04:01:22;;;;;;;7.93;5.10;;;;;;;;;;5079709;28;20025;-79
2022/06/12 04:03:48;;;;;;;11.93;4.32;;;;;;;;;;5075554;28;20017;-78
2022/06/12 04:06:18;;;;;;;6.05;4.13;;;;;;;;;;5071717;28;20009;-78
2022/06/12 04:08:48;;;;;;;8.63;4.88;;;;;;;;;;5057556;28;20028;-78
2022/06/12 04:11:16;;;;;;;7.70;4.72;;;;;;;;;;5080273;28;20017;-79
2022/06/12 04:13:42;;;;;;;9.90;5.13;;;;;;;;;;5080386;28;20089;-79
2022/06/12 04:16:21;;;;;;;10.60;4.78;;;;;;;;;;5069573;28;20036;-79
2022/06/12 04:18:46;;;;;;;13.15;5.10;;;;;;;;;;5044201;28;20029;-78
2022/06/12 04:21:33;;;;;;;8.60;4.30;;;;;;;;;;5037828;28;20036;-79
2022/06/12 04:24:04;;;;;;;11.60;4.78;;;;;;;;;;5039693;28;20498;-80
2022/06/12 04:26:39;;;;;;;7.50;4.47;;;;;;;;;;5060162;28;20403;-80
2022/06/12 04:29:19;;;;;;;6.95;4.40;;;;;;;;;;5059645;28;20551;-80
2022/06/12 04:31:48;;;;;;;11.07;4.45;;;;;;;;;;5059953;28;20052;-79
2022/06/12 04:34:22;;;;;;;9.30;4.85;;;;;;;;;;5055292;28;20033;-79
2022/06/12 04:36:52;;;;;;;6.97;5.13;;;;;;;;;;5055753;28;20313;-79
2022/06/12 04:39:23;;;;;;;9.18;5.00;;;;;;;;;;5051038;28;20025;-80
2022/06/12 04:41:49;;;;;;;9.07;5.20;;;;;;;;;;5038960;28;20099;-79
2022/06/12 04:44:15;;;;;;;8.70;4.85;;;;;;;;;;5039507;28;20116;-79
2022/06/12 04:46:44;;;;;;;9.68;5.03;;;;;;;;;;5039115;28;20083;-79
2022/06/12 04:49:14;;;;;;;8.70;5.05;;;;;;;;;;5039419;28;20079;-79
2022/06/12 04:51:39;;;;;;;6.60;3.92;;;;;;;;;;5041979;28;20029;-79
2022/06/12 04:54:05;;;;;;;7.15;5.35;;;;;;;;;;5046743;28;20062;-79
2022/06/12 04:56:33;;;;;;;8.30;4.68;;;;;;;;;;5057013;28;20112;-79
2022/06/12 04:58:59;;;;;;;5.45;4.28;;;;;;;;;;5059005;28;20028;-79
2022/06/12 05:01:25;;;;;;;8.30;4.70;;;;;;;;;;5059158;28;20023;-80
2022/06/12 05:03:50;;;;;;;6.55;4.60;;;;;;;;;;5045487;28;20039;-79
2022/06/12 05:06:17;;;;;;;7.63;4.72;;;;;;;;;;5049871;28;20044;-79
2022/06/12 05:08:44;;;;;;;6.45;4.38;;;;;;;;;;5021297;28;20026;-79
2022/06/12 05:11:11;;;;;;;6.28;4.80;;;;;;;;;;5038770;28;20293;-79
2022/06/12 05:13:36;;;;;;;8.30;4.53;;;;;;;;;;5038834;28;20083;-80
2022/06/12 05:16:02;;;;;;;6.20;4.15;;;;;;;;;;5039239;28;20026;-80
2022/06/12 05:18:28;;;;;;;6.30;4.38;;;;;;;;;;5038989;28;20029;-79
2022/06/12 05:20:54;;;;;;;8.35;5.00;;;;;;;;;;5038691;28;20033;-80
2022/06/12 05:23:21;;;;;;;9.30;5.13;;;;;;;;;;5046694;28;20013;-79
2022/06/12 05:25:47;;;;;;;7.53;4.78;;;;;;;;;;5038814;28;20507;-80
2022/06/12 05:28:14;;;;;;;6.18;4.57;;;;;;;;;;5038746;28;20029;-80
2022/06/12 05:30:41;;;;;;;9.18;4.53;;;;;;;;;;5038770;28;20029;-79
2022/06/12 05:33:06;;;;;;;7.03;4.32;;;;;;;;;;5039227;28;20017;-80
2022/06/12 05:35:33;;;;;;;8.32;4.50;;;;;;;;;;5055525;28;20054;-79
2022/06/12 05:38:00;;;;;;;11.55;4.35;;;;;;;;;;5051849;28;20030;-79
2022/06/12 05:40:28;;;;;;;10.23;4.40;;;;;;;;;;5038773;28;20021;-79
2022/06/12 05:42:54;;;;;;;7.57;3.63;;;;;;;;;;5038624;28;20021;-79
2022/06/12 05:45:23;;;;;;;4.22;3.50;;;;;;;;;;5039036;28;20036;-79
2022/06/12 05:47:52;;;;;;;11.75;3.28;;;;;;;;;;5038201;28;20053;-79
2022/06/12 05:50:21;;;;;;;5.70;3.33;;;;;;;;;;5038742;28;20344;-80
2022/06/12 05:52:46;;;;;;;3.80;3.10;;;;;;;;;;5038019;28;20045;-79
2022/06/12 05:55:12;;;;;;;4.93;3.22;;;;;;;;;;5053936;28;20028;-79
2022/06/12 05:57:38;;;;;;;4.03;2.95;;;;;;;;;;5057630;28;20052;-80
2022/06/12 06:00:08;;;;;;;5.63;3.00;;;;;;;;;;5057557;28;20057;-79
2022/06/12 06:02:34;;;;;;;5.80;3.40;;;;;;;;;;5040407;28;20088;-79
2022/06/12 06:05:00;;;;;;;7.53;3.35;;;;;;;;;;5048031;28;20033;-79
2022/06/12 06:07:26;;;;;;;6.57;3.42;;;;;;;;;;5053548;28;20024;-79
2022/06/12 06:09:51;;;;;;;5.78;3.10;;;;;;;;;;5039274;28;20387;-80
2022/06/12 06:12:18;;;;;;;4.53;2.70;;;;;;;;;;5038168;28;20081;-79
2022/06/12 06:14:43;;;;;;;3.92;2.92;;;;;;;;;;5037876;28;20236;-79
2022/06/12 06:17:09;;;;;;;5.30;3.72;;;;;;;;;;5037680;28;20082;-81
2022/06/12 06:19:34;;;;;;;6.97;3.85;;;;;;;;;;5037646;28;20444;-79
2022/06/12 06:22:00;;;;;;;7.40;3.83;;;;;;;;;;5043831;28;20025;-78
2022/06/12 06:24:25;;;;;;;7.28;3.67;;;;;;;;;;5045309;28;20055;-80
2022/06/12 06:26:51;;;;;;;4.93;3.40;;;;;;;;;;5036802;28;20036;-79
2022/06/12 06:29:16;;;;;;;3.97;2.22;;;;;;;;;;5018564;28;20025;-79
2022/06/12 06:31:41;;;;;;;4.88;3.75;;;;;;;;;;5037833;28;20364;-79
2022/06/12 06:34:07;;;;;;;4.97;3.00;;;;;;;;;;5044920;28;20028;-79
2022/06/12 06:36:33;;;;;;;4.82;2.78;;;;;;;;;;5054271;28;20107;-79
2022/06/12 06:38:58;;;;;;;5.30;2.60;;;;;;;;;;5048177;28;20017;-80
2022/06/12 06:41:25;;;;;;;7.85;2.72;;;;;;;;;;5055902;28;20051;-79
2022/06/12 06:46:36;;;;;;;8.48;2.50;;;;;;;;;;5056235;28;20036;-78
2022/06/12 06:49:03;;;;;;;4.90;2.17;;;;;;;;;;5056032;28;20387;-80
2022/06/12 06:51:28;;;;;;;7.15;2.40;;;;;;;;;;5051193;28;20074;-79
2022/06/12 06:53:53;;;;;;;4.13;2.45;;;;;;;;;;5047731;28;20107;-78
2022/06/12 06:56:20;;;;;;;5.85;2.53;;;;;;;;;;5045131;28;20025;-79
2022/06/12 06:58:46;;;;;;;5.38;2.25;;;;;;;;;;5035541;28;20028;-80
2022/06/12 07:01:11;;;;;;;6.00;2.30;;;;;;;;;;5036050;28;20021;-79
2022/06/12 07:03:37;;;;;;;3.28;1.92;;;;;;;;;;5039547;28;20490;-80
2022/06/12 07:06:02;;;;;;;3.97;2.20;;;;;;;;;;5027554;28;20056;-80
2022/06/12 07:08:29;;;;;;;3.42;2.00;;;;;;;;;;5044311;28;20060;-80
2022/06/12 07:10:55;;;;;;;6.47;2.40;;;;;;;;;;5019927;28;20112;-79
2022/06/12 07:13:21;;;;;;;4.75;2.55;;;;;;;;;;5036816;28;20017;-80
2022/06/12 07:15:47;;;;;;;5.15;2.88;;;;;;;;;;5037040;28;20706;-79
2022/06/12 07:18:13;;;;;;;4.88;2.70;;;;;;;;;;5043439;28;20110;-80
2022/06/12 07:20:51;;;;;;;5.88;2.85;;;;;;;;;;5030833;28;20398;-79
2022/06/12 07:23:18;;;;;;;2.88;2.38;;;;;;;;;;5040157;28;20128;-80
2022/06/12 07:25:50;;;;;;;3.20;2.40;;;;;;;;;;5049366;28;20031;-79
2022/06/12 07:28:16;;;;;;;;;;;;;;;;;;5057122;28;20082;-79
2022/06/12 07:30:41;;;;;;;3.33;2.67;;;;;;;;;;5047926;28;19936;-80
2022/06/12 07:33:08;;;;;;;4.10;2.58;;;;;;;;;;5046432;28;20441;-79
2022/06/12 07:35:35;;;;;;;5.03;2.55;;;;;;;;;;5052755;28;20478;-79
2022/06/12 07:38:01;;;;;;;4.30;2.90;;;;;;;;;;5055616;28;20056;-79
2022/06/12 07:40:38;;;;;;;3.05;2.42;;;;;;;;;;5038533;28;20154;-79
2022/06/12 07:43:03;;;;;;;2.50;2.05;;;;;;;;;;5036500;28;20108;-80
2022/06/12 07:45:30;;;;;;;4.03;2.78;;;;;;;;;;5036356;28;20510;-78
2022/06/12 07:47:57;;;;;;;5.90;2.50;;;;;;;;;;5036480;28;20377;-79
2022/06/12 07:50:22;;;;;;;6.13;2.55;;;;;;;;;;5036161;28;20099;-79
2022/06/12 07:52:48;;;;;;;5.20;2.65;;;;;;;;;;5043379;28;20017;-80
2022/06/12 07:55:15;;;;;;;5.38;2.42;;;;;;;;;;5052178;28;20104;-79
2022/06/12 07:57:41;;;;;;;3.20;2.30;;;;;;;;;;5056243;28;20047;-79
2022/06/12 08:00:08;;;;;;;3.75;2.70;;;;;;;;;;5055175;28;20479;-79
2022/06/12 08:02:33;;;;;;;4.18;2.20;;;;;;;;;;5055440;28;20075;-79
2022/06/12 08:04:58;;;;;;;5.43;2.85;;;;;;;;;;5046108;28;20026;-79
2022/06/12 08:07:24;;;;;;;3.03;2.17;;;;;;;;;;5050291;28;20376;-79
2022/06/12 08:09:49;;;;;;;7.78;2.25;;;;;;;;;;5043755;28;20363;-79
2022/06/12 08:12:15;;;;;;;4.25;2.15;;;;;;;;;;5037813;28;20024;-80
2022/06/12 08:14:40;;;;;;;6.10;2.38;;;;;;;;;;5047551;28;20029;-79
2022/06/12 08:17:06;;;;;;;3.30;2.22;;;;;;;;;;5046537;28;20056;-79
2022/06/12 08:22:16;;;;;;;7.07;2.20;;;;;;;;;;5052954;28;20024;-80
2022/06/12 08:24:42;;;;;;;2.35;2.00;;;;;;;;;;5038352;28;20029;-79
2022/06/12 08:27:08;;;;;;;3.80;2.40;;;;;;;;;;5048255;28;20549;-81
2022/06/12 08:29:34;;;;;;;3.47;2.10;;;;;;;;;;5035311;28;20029;-79
2022/06/12 08:32:12;;;;;;;5.07;2.75;;;;;;;;;;5038632;28;20118;-81
2022/06/12 08:34:42;;;;;;;4.40;2.03;;;;;;;;;;5050435;28;20086;-81
2022/06/12 08:37:14;;;;;;;5.93;2.28;;;;;;;;;;5056378;28;20112;-81
2022/06/12 08:39:40;;;;;;;4.82;2.58;;;;;;;;;;5051859;28;20037;-82
2022/06/12 08:42:12;;;;;;;5.25;2.72;;;;;;;;;;5061144;28;20078;-82
2022/06/12 08:44:51;;;;;;;4.40;2.10;;;;;;;;;;5042743;28;20033;-82
2022/06/12 08:47:22;;;;;;;9.43;3.10;;;;;;;;;;5060579;28;20490;-80
2022/06/12 08:50:10;;;;;;;5.10;2.35;;;;;;;;;;5060785;28;20434;-81
2022/06/12 08:53:08;;;;;;;6.63;2.80;;;;;;;;;;5052782;28;20025;-80
2022/06/12 08:56:08;;;;;;;4.78;2.67;;;;;;;;;;5040395;28;20480;-80
2022/06/12 08:59:04;;;;;;;3.67;2.38;;;;;;;;;;4986361;28;20377;-82
2022/06/12 09:01:30;;;;;;;3.85;2.22;;;;;;;;;;5019929;28;20033;-80
2022/06/12 09:03:56;;;;;;;12.68;2.10;;;;;;;;;;5034718;28;20043;-80
2022/06/12 09:06:57;;;;;;;8.23;2.65;;;;;;;;;;5033367;28;20073;-82
2022/06/12 09:09:58;;;;;;;5.47;1.95;;;;;;;;;;5033579;28;20496;-80
2022/06/12 09:12:34;;;;;;;4.18;1.75;;;;;;;;;;5040433;28;20030;-82
2022/06/12 09:15:06;;;;;;;2.58;1.67;;;;;;;;;;5039720;28;20036;-82
2022/06/12 09:17:44;;;;;;;3.95;1.50;;;;;;;;;;5030504;28;20025;-82
2022/06/12 09:20:20;;;;;;;2.83;1.75;;;;;;;;;;5043246;28;20066;-82
2022/06/12 09:23:04;;;;;;;1.95;1.70;;;;;;;;;;5046255;28;20021;-82
2022/06/12 09:25:48;;;;;;;2.10;1.73;;;;;;;;;;5057357;28;20108;-81
2022/06/12 09:28:16;;;;;;;2.22;1.60;;;;;;;;;;5044906;28;20025;-82
2022/06/12 09:31:18;;;;;;;2.95;1.80;;;;;;;;;;5058011;28;20059;-82
2022/06/12 09:34:29;;;;;;;3.58;1.40;;;;;;;;;;5052394;28;20017;-83
2022/06/12 09:38:18;;;;;;;2.28;1.75;;;;;;;;;;4952201;28;20062;-81
2022/06/12 09:40:07;;;;;;;3.10;1.88;;;;;;;;;;4970244;28;20482;-81
2022/06/12 09:43:14;;;;;;;3.83;1.70;;;;;;;;;;5028082;28;20037;-81
2022/06/12 09:45:50;;;;;;;2.97;1.95;;;;;;;;;;5031589;28;20635;-79
2022/06/12 09:48:24;;;;;;;2.97;1.50;;;;;;;;;;5038094;28;20088;-80
2022/06/12 09:50:53;;;;;;;2.17;1.40;;;;;;;;;;5022289;28;20029;-80
2022/06/12 09:53:32;;;;;;;2.30;1.65;;;;;;;;;;5047005;28;20056;-79
2022/06/12 09:56:05;;;;;;;3.20;1.30;;;;;;;;;;5058882;28;20084;-78
2022/06/12 09:58:39;;;;;;;2.05;1.50;;;;;;;;;;5059334;28;20459;-79
2022/06/12 10:01:15;;;;;;;1.42;1.30;;;;;;;;;;5058373;28;20033;-79
2022/06/12 10:03:51;;;;;;;2.83;1.60;;;;;;;;;;5053511;28;20021;-79
2022/06/12 10:06:27;;;;;;;1.95;1.42;;;;;;;;;;5049620;28;20076;-79
2022/06/12 10:09:10;;;;;;;3.53;1.50;;;;;;;;;;5025987;28;20083;-79
2022/06/12 10:12:01;;;;;;;4.15;1.40;;;;;;;;;;5047308;28;20059;-79
2022/06/12 10:14:40;;;;;;;3.63;1.30;;;;;;;;;;5046389;28;20038;-80
2022/06/12 10:17:21;;;;;;;2.35;2.00;;;;;;;;;;5034534;28;20029;-81
2022/06/12 10:19:55;;;;;;;3.03;1.70;;;;;;;;;;5035915;28;20121;-79
2022/06/12 10:22:38;;;;;;;5.45;1.65;;;;;;;;;;5034566;28;20237;-81
2022/06/12 10:25:06;;;;;;;3.70;1.55;;;;;;;;;;5053292;28;20359;-80
2022/06/12 10:27:45;;;;;;;2.58;1.48;;;;;;;;;;5047024;28;20014;-79
2022/06/12 10:30:33;;;;;;;1.45;1.35;;;;;;;;;;5054280;28;20037;-81
2022/06/12 10:33:14;;;;;;;1.88;1.42;;;;;;;;;;5052611;28;20021;-81
2022/06/12 10:35:50;;;;;;;;;;;;;;;;;;5051465;28;20422;-78
2022/06/12 10:38:18;;;;;;;1.73;1.60;;;;;;;;;;5046783;28;19913;-78
2022/06/12 10:40:56;;;;;;;2.95;1.40;;;;;;;;;;5015826;28;20104;-81
2022/06/12 10:43:29;;;;;;;2.03;1.13;;;;;;;;;;5014744;28;20080;-79
2022/06/12 10:46:03;;;;;;;2.78;1.63;;;;;;;;;;5015756;28;20022;-81
2022/06/12 10:48:34;;;;;;;5.95;1.58;;;;;;;;;;5029513;28;20033;-79
2022/06/12 10:51:24;;;;;;;4.20;1.42;;;;;;;;;;5034786;28;20034;-79
2022/06/12 10:54:01;;;;;;;2.67;1.67;;;;;;;;;;5035264;28;20036;-80
2022/06/12 10:56:30;;;;;;;2.55;1.50;;;;;;;;;;5034838;28;20108;-79
2022/06/12 10:59:17;;;;;;;1.45;1.25;;;;;;;;;;5034435;28;20463;-79
2022/06/12 11:02:22;;;;;;;1.42;1.20;;;;;;;;;;5034184;28;20113;-81
2022/06/12 11:05:11;;;;;;;4.18;1.50;;;;;;;;;;5037407;28;20045;-80
2022/06/12 11:08:02;;;;;;;2.42;1.23;;;;;;;;;;5050149;28;20025;-82
2022/06/12 11:10:45;;;;;;;2.15;1.08;;;;;;;;;;5034614;28;20119;-79
2022/06/12 11:13:23;;;;;;;2.72;1.23;;;;;;;;;;5054291;28;20043;-78
2022/06/12 11:16:04;;;;;;;1.88;1.25;;;;;;;;;;5053403;28;20187;-77
2022/06/12 11:18:58;;;;;;;1.33;1.23;;;;;;;;;;5052427;28;20502;-80
2022/06/12 11:21:26;;;;;;;1.88;1.17;;;;;;;;;;5042748;28;20472;-79
2022/06/12 11:24:11;;;;;;;1.23;1.13;;;;;;;;;;5042474;28;20554;-80
2022/06/12 11:26:44;;;;;;;3.38;1.65;;;;;;;;;;5053081;28;20032;-78
2022/06/12 11:29:22;;;;;;;5.70;1.70;;;;;;;;;;5053841;28;20104;-80
2022/06/12 11:32:11;;;;;;;2.80;1.55;;;;;;;;;;5054456;28;20025;-79
2022/06/12 11:34:42;;;;;;;3.05;1.42;;;;;;;;;;4999987;28;20044;-79
2022/06/12 11:37:10;;;;;;;5.18;1.75;;;;;;;;;;5027137;28;20029;-80
2022/06/12 11:39:53;;;;;;;3.35;1.50;;;;;;;;;;5028534;28;20025;-79
2022/06/12 11:42:24;;;;;;;3.40;1.70;;;;;;;;;;5047637;28;20056;-79
2022/06/12 11:44:59;;;;;;;5.40;1.25;;;;;;;;;;5042014;28;20036;-82
2022/06/12 11:47:44;;;;;;;2.97;1.98;;;;;;;;;;5015948;28;20037;-79
2022/06/12 11:50:22;;;;;;;2.08;1.30;;;;;;;;;;5035107;28;20037;-79
2022/06/12 11:53:06;;;;;;;2.25;1.30;;;;;;;;;;5038193;28;20029;-80
2022/06/12 11:55:50;;;;;;;1.92;1.40;;;;;;;;;;5036152;28;20030;-80
2022/06/12 11:58:40;;;;;;;3.70;1.50;;;;;;;;;;5016594;28;20032;-79
2022/06/12 12:01:35;;;;;;;2.30;1.40;;;;;;;;;;5034770;28;20025;-80
2022/06/12 12:04:08;;;;;;;2.17;1.48;;;;;;;;;;5038244;28;20580;-79
2022/06/12 12:06:47;;;;;;;2.90;1.50;;;;;;;;;;5023344;28;20037;-79
2022/06/12 12:09:37;;;;;;;1.38;1.27;;;;;;;;;;5050192;28;20154;-80
2022/06/12 12:12:10;;;;;;;3.50;1.85;;;;;;;;;;5034350;28;20502;-80
2022/06/12 12:14:39;;;;;;;3.13;1.50;;;;;;;;;;5018657;28;20038;-79
2022/06/12 12:17:15;;;;;;;4.28;1.60;;;;;;;;;;5017694;28;20034;-81
2022/06/12 12:19:43;;;;;;;2.47;1.50;;;;;;;;;;5018360;28;20026;-79
2022/06/12 12:22:15;;;;;;;1.90;1.48;;;;;;;;;;5028060;28;20030;-79
2022/06/12 12:25:12;;;;;;;2.22;1.40;;;;;;;;;;5049459;28;20025;-79
2022/06/12 12:27:42;;;;;;;2.78;1.58;;;;;;;;;;5039882;28;20403;-80
2022/06/12 12:30:31;;;;;;;3.70;1.58;;;;;;;;;;5040272;28;20025;-80
2022/06/12 12:33:00;;;;;;;2.53;1.52;;;;;;;;;;5056323;28;20448;-81
2022/06/12 12:41:12;;;;;;;3.38;1.88;;;;;;;;;;5017489;28;20033;-78
2022/06/12 12:43:58;;;;;;;3.30;1.55;;;;;;;;;;5016934;28;20420;-78
2022/06/12 12:46:38;;;;;;;5.50;1.50;;;;;;;;;;5017197;28;20034;-80
2022/06/12 12:49:03;;;;;;;2.58;1.67;;;;;;;;;;5017159;28;20241;-80
2022/06/12 12:51:33;;;;;;;2.72;1.50;;;;;;;;;;5034985;28;20479;-79
2022/06/12 12:54:19;;;;;;;2.97;1.40;;;;;;;;;;5047807;28;20426;-78
2022/06/12 12:57:02;;;;;;;2.10;1.63;;;;;;;;;;5056627;28;20036;-79
2022/06/12 12:59:40;;;;;;;2.67;1.67;;;;;;;;;;5039231;28;20029;-79
2022/06/12 13:02:26;;;;;;;1.60;1.50;;;;;;;;;;5055406;28;20021;-80
2022/06/12 13:04:56;;;;;;;3.78;1.73;;;;;;;;;;5053653;28;20056;-80
2022/06/12 13:07:32;;;;;;;3.67;1.42;;;;;;;;;;5067596;28;20081;-82
2022/06/12 13:10:25;;;;;;;1.55;1.35;;;;;;;;;;5039441;28;20029;-81
2022/06/12 13:13:08;;;;;;;4.43;1.45;;;;;;;;;;5056842;28;20031;-80
2022/06/12 13:15:45;;;;;;;2.08;1.65;;;;;;;;;;5038887;28;20024;-80
2022/06/12 13:18:43;;;;;;;1.65;1.33;;;;;;;;;;5057394;28;20032;-81
2022/06/12 13:21:31;;;;;;;4.47;1.63;;;;;;;;;;5057031;28;20040;-79
2022/06/12 13:23:56;;;;;;;3.83;1.73;;;;;;;;;;5039122;28;20032;-80
2022/06/12 13:26:25;;;;;;;5.93;1.90;;;;;;;;;;5036478;28;20053;-80
2022/06/12 13:28:59;;;;;;;5.97;1.70;;;;;;;;;;5035741;28;20034;-80
2022/06/12 13:31:28;;;;;;;3.83;1.60;;;;;;;;;;5035564;28;20021;-81
2022/06/12 13:33:57;;;;;;;5.40;1.70;;;;;;;;;;5040456;28;20398;-80
2022/06/12 13:36:32;;;;;;;2.78;1.70;;;;;;;;;;5048187;28;20033;-80
2022/06/12 13:39:02;;;;;;;3.05;1.55;;;;;;;;;;5042515;28;20407;-79
2022/06/12 13:41:44;;;;;;;5.80;1.42;;;;;;;;;;5037091;28;20025;-77
2022/06/12 13:44:36;;;;;;;4.15;1.52;;;;;;;;;;5017851;28;20545;-81
2022/06/12 13:47:16;;;;;;;;;;;;;;;;;;5026107;28;20045;-79
2022/06/12 13:50:04;;;;;;;2.53;1.40;;;;;;;;;;5037690;28;20358;-79
2022/06/12 13:52:38;;;;;;;2.17;1.80;;;;;;;;;;5037675;28;20029;-81
2022/06/12 13:55:32;;;;;;;2.92;1.75;;;;;;;;;;5037446;28;20077;-81
2022/06/12 13:58:17;;;;;;;3.88;1.70;;;;;;;;;;5034568;28;20116;-79
2022/06/12 14:00:44;;;;;;;2.40;1.67;;;;;;;;;;5034551;28;20033;-81
2022/06/12 14:03:48;;;;;;;4.32;1.70;;;;;;;;;;5026904;28;20032;-80
2022/06/12 14:06:17;;;;;;;8.85;1.75;;;;;;;;;;5008648;28;20025;-81
2022/06/12 14:08:43;;;;;;;1.88;1.67;;;;;;;;;;5040568;28;20399;-79
2022/06/12 14:11:19;;;;;;;1.40;1.23;;;;;;;;;;5048446;28;20025;-80
2022/06/12 14:13:45;;;;;;;3.67;2.00;;;;;;;;;;5036986;28;20017;-78
2022/06/12 14:16:13;;;;;;;3.58;1.42;;;;;;;;;;5036657;28;20083;-81
2022/06/12 14:18:51;;;;;;;3.47;1.73;;;;;;;;;;5036194;28;20033;-78
2022/06/12 14:21:20;;;;;;;3.72;1.92;;;;;;;;;;5045633;28;20016;-79
2022/06/12 14:23:49;;;;;;;2.75;1.70;;;;;;;;;;5064371;28;20029;-78
2022/06/12 14:26:27;;;;;;;2.50;1.70;;;;;;;;;;5062737;28;20021;-78
2022/06/12 14:28:54;;;;;;;4.22;1.75;;;;;;;;;;5061622;28;20040;-78
2022/06/12 14:31:27;;;;;;;3.85;1.60;;;;;;;;;;5061652;28;20081;-76
2022/06/12 14:33:54;;;;;;;2.75;1.70;;;;;;;;;;5059921;28;20032;-77
2022/06/12 14:36:28;;;;;;;3.10;1.60;;;;;;;;;;5059257;22;20097;-82
2022/06/12 14:38:55;;;;;;;1.63;1.45;;;;;;;;;;5036551;28;20379;-82
2022/06/12 14:41:28;;;;;;;1.60;1.50;;;;;;;;;;5037004;28;20028;-80
2022/06/12 14:43:56;;;;;;;4.50;1.67;;;;;;;;;;5013428;28;20418;-81
2022/06/12 14:46:28;;;;;;;2.83;1.60;;;;;;;;;;5019368;28;20022;-82
2022/06/12 14:48:54;;;;;;;3.45;1.75;;;;;;;;;;5037445;28;20043;-80
2022/06/12 14:51:20;;;;;;;1.67;1.58;;;;;;;;;;5018977;28;20045;-81
2022/06/12 14:53:47;;;;;;;2.78;1.63;;;;;;;;;;5048832;28;20025;-81
2022/06/12 14:56:16;;;;;;;1.80;1.60;;;;;;;;;;5057660;28;20029;-81
2022/06/12 14:58:42;;;;;;;2.58;1.90;;;;;;;;;;5038672;28;20616;-81
2022/06/12 15:01:16;;;;;;;2.70;1.90;;;;;;;;;;5057570;28;20082;-81
2022/06/12 15:03:42;;;;;;;3.80;1.67;;;;;;;;;;5052623;28;20401;-81
2022/06/12 15:06:10;;;;;;;3.90;1.75;;;;;;;;;;5044419;28;20028;-82
2022/06/12 15:08:36;;;;;;;1.83;1.60;;;;;;;;;;5045000;28;20116;-82
2022/06/12 15:11:01;;;;;;;2.58;1.80;;;;;;;;;;5033826;28;20061;-82
2022/06/12 15:13:27;;;;;;;4.15;1.70;;;;;;;;;;5052509;28;20383;-81
2022/06/12 15:15:53;;;;;;;2.90;1.80;;;;;;;;;;5052992;28;20029;-82
2022/06/12 15:18:19;;;;;;;2.67;1.60;;;;;;;;;;5044862;28;20083;-82
2022/06/12 15:20:50;;;;;;;2.55;1.88;;;;;;;;;;5056443;28;20032;-83
2022/06/12 15:23:18;;;;;;;2.63;1.60;;;;;;;;;;5054131;28;20021;-82
2022/06/12 15:31:17;;;;;;;3.30;1.65;;;;;;;;;;5056832;28;20036;-81
2022/06/12 15:33:44;;;;;;;2.25;1.60;;;;;;;;;;5036326;28;20217;-81
2022/06/12 15:36:11;;;;;;;2.63;1.65;;;;;;;;;;5006797;28;1067906;-85
2022/06/12 15:38:36;;;;;;;2.88;1.80;;;;;;;;;;5036758;28;20564;-83
2022/06/12 15:41:02;;;;;;;1.50;1.38;;;;;;;;;;5032698;28;20042;-83
2022/06/12 15:43:28;;;;;;;1.45;1.35;;;;;;;;;;5034898;28;20026;-81